createdAt,value
2018-09-25T00:02:26.124Z,1.50
2018-09-25T00:05:01.926Z,1.13
2018-09-25T00:07:36.858Z,1.30
2018-09-25T00:10:12.288Z,1.70
2018-09-25T00:12:48.595Z,1.20
2018-09-25T00:15:23.674Z,1.47
2018-09-25T00:17:58.607Z,1.00
2018-09-25T00:20:33.642Z,1.57
2018-09-25T00:23:08.734Z,1.50
2018-09-25T00:25:43.971Z,1.57
2018-09-25T00:28:19.948Z,1.57
2018-09-25T00:30:54.985Z,1.53
2018-09-25T00:33:30.570Z,1.53
2018-09-25T00:36:05.879Z,1.43
2018-09-25T00:38:41.610Z,1.10
2018-09-25T00:41:16.613Z,1.60
2018-09-25T00:43:52.335Z,1.60
2018-09-25T00:46:28.079Z,1.60
2018-09-25T00:49:03.323Z,1.27
2018-09-25T00:51:38.720Z,1.30
2018-09-25T00:54:13.927Z,1.43
2018-09-25T00:56:50.032Z,1.43
2018-09-25T00:59:25.484Z,1.27
2018-09-25T01:02:02.496Z,1.47
2018-09-25T01:04:37.707Z,1.53
2018-09-25T01:07:12.814Z,2.23
2018-09-25T01:09:48.509Z,1.40
2018-09-25T01:12:23.917Z,1.70
2018-09-25T01:14:58.828Z,1.27
2018-09-25T01:17:34.645Z,1.10
2018-09-25T01:20:09.743Z,1.77
2018-09-25T01:22:45.016Z,1.90
2018-09-25T01:25:20.186Z,1.60
2018-09-25T01:27:55.113Z,1.67
2018-09-25T01:30:30.141Z,1.73
2018-09-25T01:33:05.316Z,1.70
2018-09-25T01:35:40.188Z,1.70
2018-09-25T01:38:15.051Z,1.30
2018-09-25T01:40:50.349Z,1.33
2018-09-25T01:43:26.679Z,1.40
2018-09-25T01:46:01.747Z,1.40
2018-09-25T01:48:36.856Z,1.33
2018-09-25T01:51:12.688Z,1.67
2018-09-25T01:53:49.357Z,1.43
2018-09-25T01:56:25.306Z,1.50
2018-09-25T01:59:04.383Z,1.60
2018-09-25T02:01:39.435Z,1.60
2018-09-25T02:04:14.663Z,1.40
2018-09-25T02:06:49.922Z,1.57
2018-09-25T02:09:25.808Z,1.77
2018-09-25T02:12:00.746Z,1.87
2018-09-25T02:14:36.044Z,1.77
2018-09-25T02:17:11.205Z,1.27
2018-09-25T02:19:46.439Z,1.90
2018-09-25T02:22:21.413Z,1.50
2018-09-25T02:24:56.533Z,1.53
2018-09-25T02:27:31.736Z,1.40
2018-09-25T02:30:06.664Z,1.67
2018-09-25T02:32:42.246Z,1.47
2018-09-25T02:35:19.758Z,2.00
2018-09-25T02:37:54.836Z,1.97
2018-09-25T02:40:30.049Z,1.93
2018-09-25T02:43:06.108Z,1.50
2018-09-25T02:45:40.959Z,1.87
2018-09-25T02:48:16.479Z,1.80
2018-09-25T02:50:51.360Z,1.40
2018-09-25T02:53:26.533Z,1.43
2018-09-25T02:56:01.986Z,1.50
2018-09-25T02:58:37.001Z,1.93
2018-09-25T03:01:12.651Z,1.40
2018-09-25T03:03:47.609Z,1.90
2018-09-25T03:06:22.538Z,1.40
2018-09-25T03:08:57.979Z,1.83
2018-09-25T03:11:33.438Z,1.53
2018-09-25T03:14:08.258Z,2.03
2018-09-25T03:16:42.931Z,1.37
2018-09-25T03:19:18.019Z,2.13
2018-09-25T03:21:52.746Z,1.67
2018-09-25T03:24:27.403Z,1.80
2018-09-25T03:27:02.262Z,1.53
2018-09-25T03:29:36.693Z,1.20
2018-09-25T03:32:11.627Z,1.60
2018-09-25T03:34:47.448Z,2.00
2018-09-25T03:37:23.964Z,1.40
2018-09-25T03:39:59.380Z,1.40
2018-09-25T03:42:34.483Z,1.70
2018-09-25T03:45:09.368Z,1.50
2018-09-25T03:47:44.210Z,1.93
2018-09-25T03:50:19.417Z,1.67
2018-09-25T03:52:54.253Z,1.80
2018-09-25T03:55:29.304Z,1.73
2018-09-25T03:58:06.145Z,1.57
2018-09-25T04:00:42.460Z,1.70
2018-09-25T04:03:17.597Z,1.97
2018-09-25T04:05:53.179Z,1.77
2018-09-25T04:08:28.160Z,1.70
2018-09-25T04:11:03.943Z,1.27
2018-09-25T04:13:39.839Z,1.63
2018-09-25T04:16:15.662Z,1.57
2018-09-25T04:18:51.615Z,1.50
2018-09-25T04:21:26.537Z,1.60
2018-09-25T04:24:02.046Z,1.60
2018-09-25T04:26:37.321Z,1.87
2018-09-25T04:29:12.561Z,1.80
2018-09-25T04:31:47.468Z,1.47
2018-09-25T04:34:22.279Z,2.00
2018-09-25T04:36:57.254Z,1.90
2018-09-25T04:39:33.709Z,1.50
2018-09-25T04:42:08.619Z,1.90
2018-09-25T04:44:43.475Z,1.83
2018-09-25T04:47:18.223Z,1.83
2018-09-25T04:49:54.800Z,1.50
2018-09-25T04:52:29.799Z,2.30
2018-09-25T04:55:05.437Z,1.63
2018-09-25T04:57:40.498Z,1.97
2018-09-25T05:00:15.961Z,1.53
2018-09-25T05:02:51.163Z,1.27
2018-09-25T05:05:26.134Z,1.90
2018-09-25T05:08:00.907Z,1.43
2018-09-25T05:10:36.721Z,5.93
2018-09-25T05:13:11.892Z,3.50
2018-09-25T05:15:46.835Z,6.20
2018-09-25T05:18:22.753Z,2.37
2018-09-25T05:20:58.851Z,5.10
2018-09-25T05:23:34.998Z,4.47
2018-09-25T05:26:09.571Z,2.20
2018-09-25T05:28:44.615Z,3.53
2018-09-25T05:31:19.675Z,3.87
2018-09-25T05:33:55.193Z,2.77
2018-09-25T05:36:30.158Z,2.60
2018-09-25T05:39:05.165Z,1.47
2018-09-25T05:41:41.624Z,1.83
2018-09-25T05:44:17.302Z,2.07
2018-09-25T05:46:53.796Z,1.97
2018-09-25T05:49:28.652Z,2.47
2018-09-25T05:52:03.745Z,2.17
2018-09-25T05:54:38.630Z,1.90
2018-09-25T05:57:14.040Z,2.37
2018-09-25T05:59:49.566Z,1.50
2018-09-25T06:02:24.706Z,1.50
2018-09-25T06:04:59.750Z,2.07
2018-09-25T06:07:35.672Z,2.00
2018-09-25T06:10:11.243Z,2.17
2018-09-25T06:12:46.701Z,1.77
2018-09-25T06:15:22.028Z,1.70
2018-09-25T06:17:56.942Z,1.67
2018-09-25T06:20:31.977Z,2.13
2018-09-25T06:23:06.864Z,1.70
2018-09-25T06:25:48.821Z,2.00
2018-09-25T06:28:24.016Z,1.70
2018-09-25T06:30:59.187Z,1.57
2018-09-25T06:33:34.525Z,1.90
2018-09-25T06:36:10.166Z,2.17
2018-09-25T06:38:44.993Z,2.30
2018-09-25T06:41:20.356Z,2.20
2018-09-25T06:43:55.233Z,1.77
2018-09-25T06:46:30.739Z,2.00
2018-09-25T06:49:05.628Z,2.00
2018-09-25T06:51:40.433Z,1.80
2018-09-25T06:54:16.074Z,1.83
2018-09-25T06:56:50.879Z,2.00
2018-09-25T06:59:26.369Z,2.30
2018-09-25T07:02:01.188Z,1.87
2018-09-25T07:04:36.118Z,2.37
2018-09-25T07:07:11.476Z,2.00
2018-09-25T07:09:46.376Z,2.00
2018-09-25T07:12:22.840Z,1.80
2018-09-25T07:14:57.723Z,1.90
2018-09-25T07:17:32.938Z,2.13
2018-09-25T07:20:08.279Z,2.40
2018-09-25T07:22:44.243Z,1.50
2018-09-25T07:25:19.339Z,2.20
2018-09-25T07:27:56.362Z,1.90
2018-09-25T07:30:31.292Z,1.47
2018-09-25T07:33:07.247Z,1.90
2018-09-25T07:35:42.276Z,1.93
2018-09-25T07:38:17.317Z,2.10
2018-09-25T07:40:52.523Z,1.80
2018-09-25T07:43:27.444Z,1.97
2018-09-25T07:46:02.673Z,1.60
2018-09-25T07:48:37.343Z,1.67
2018-09-25T07:51:13.979Z,1.60
2018-09-25T07:53:49.418Z,1.87
2018-09-25T07:56:25.313Z,1.83
2018-09-25T07:59:00.132Z,1.70
2018-09-25T08:01:35.193Z,1.90
2018-09-25T08:04:10.041Z,1.53
2018-09-25T08:06:45.104Z,1.80
2018-09-25T08:09:20.058Z,1.50
2018-09-25T08:11:55.494Z,2.07
2018-09-25T08:14:30.492Z,1.97
2018-09-25T08:17:06.212Z,1.70
2018-09-25T08:19:41.184Z,2.20
2018-09-25T08:22:16.556Z,1.70
2018-09-25T08:24:51.647Z,1.93
2018-09-25T08:27:26.337Z,1.77
2018-09-25T08:30:01.608Z,1.80
2018-09-25T08:32:37.694Z,1.80
2018-09-25T08:35:13.253Z,1.50
2018-09-25T08:37:48.323Z,2.17
2018-09-25T08:40:23.873Z,1.90
2018-09-25T08:42:58.905Z,1.73
2018-09-25T08:45:33.619Z,1.67
2018-09-25T08:48:08.564Z,1.73
2018-09-25T08:50:43.533Z,1.60
2018-09-25T08:53:18.938Z,1.87
2018-09-25T08:55:54.133Z,1.80
2018-09-25T08:58:28.998Z,1.80
2018-09-25T09:01:03.813Z,1.77
2018-09-25T09:03:40.170Z,1.77
2018-09-25T09:06:15.092Z,1.77
2018-09-25T09:08:50.592Z,1.80
2018-09-25T09:11:25.575Z,1.73
2018-09-25T09:14:00.549Z,1.70
2018-09-25T09:16:35.478Z,1.60
2018-09-25T09:19:10.471Z,1.47
2018-09-25T09:21:45.137Z,1.52
2018-09-25T09:24:21.171Z,1.22
2018-09-25T09:26:56.153Z,1.65
2018-09-25T09:29:31.122Z,1.30
2018-09-25T09:32:06.139Z,1.40
2018-09-25T09:34:42.396Z,1.50
2018-09-25T09:37:16.896Z,1.75
2018-09-25T09:39:51.747Z,1.50
2018-09-25T09:42:27.257Z,1.65
2018-09-25T09:45:02.928Z,1.15
2018-09-25T09:47:37.862Z,1.77
2018-09-25T09:50:13.375Z,1.27
2018-09-25T09:52:48.400Z,1.60
2018-09-25T09:55:23.549Z,1.23
2018-09-25T09:57:58.407Z,1.33
2018-09-25T10:00:34.971Z,1.57
2018-09-25T10:03:10.684Z,1.45
2018-09-25T10:05:45.849Z,1.22
2018-09-25T10:08:20.935Z,1.57
2018-09-25T10:10:56.426Z,1.50
2018-09-25T10:13:31.987Z,1.30
2018-09-25T10:16:07.596Z,1.25
2018-09-25T10:18:42.455Z,1.20
2018-09-25T10:21:17.327Z,1.22
2018-09-25T10:23:52.214Z,1.42
2018-09-25T10:26:27.191Z,1.12
2018-09-25T10:29:03.336Z,0.88
2018-09-25T10:31:38.983Z,0.90
2018-09-25T10:34:15.172Z,1.07
2018-09-25T10:36:51.201Z,1.55
2018-09-25T10:39:27.920Z,1.40
2018-09-25T10:42:03.720Z,1.12
2018-09-25T10:44:38.857Z,1.32
2018-09-25T10:47:14.435Z,1.55
2018-09-25T10:49:50.345Z,1.37
2018-09-25T10:52:26.921Z,1.13
2018-09-25T10:55:01.884Z,1.30
2018-09-25T10:57:38.619Z,0.90
2018-09-25T11:00:13.428Z,1.00
2018-09-25T11:02:48.445Z,1.40
2018-09-25T11:05:24.270Z,1.17
2018-09-25T11:07:59.602Z,1.30
2018-09-25T11:10:34.636Z,1.17
2018-09-25T11:13:09.562Z,1.60
2018-09-25T11:15:44.332Z,1.07
2018-09-25T11:18:18.697Z,1.20
2018-09-25T11:20:53.934Z,1.40
2018-09-25T11:23:28.477Z,1.20
2018-09-25T11:26:03.886Z,1.30
2018-09-25T11:28:38.815Z,1.10
2018-09-25T11:31:13.710Z,1.30
2018-09-25T11:33:48.639Z,1.67
2018-09-25T11:36:24.003Z,1.10
2018-09-25T11:39:05.952Z,1.20
2018-09-25T12:26:30.352Z,0.87
2018-09-25T12:29:04.458Z,1.20
2018-09-25T12:31:38.787Z,0.83
2018-09-25T12:34:13.883Z,1.00
2018-09-25T12:36:49.074Z,0.90
2018-09-25T12:39:24.098Z,1.23
2018-09-25T12:42:00.159Z,1.07
2018-09-25T12:44:35.977Z,1.10
2018-09-25T12:47:11.061Z,0.90
2018-09-25T12:49:46.934Z,0.90
2018-09-25T12:52:21.944Z,0.73
2018-09-25T12:55:00.768Z,0.90
2018-09-25T12:57:35.867Z,0.83
2018-09-25T13:00:11.294Z,0.90
2018-09-25T13:02:48.731Z,1.00
2018-09-25T13:05:24.572Z,0.97
2018-09-25T13:08:01.819Z,1.10
2018-09-25T13:10:36.609Z,0.77
2018-09-25T13:13:11.386Z,1.23
2018-09-25T13:15:46.190Z,1.00
2018-09-25T13:18:20.814Z,1.10
2018-09-25T13:20:55.785Z,1.30
2018-09-25T13:23:30.657Z,1.00
2018-09-25T13:26:05.653Z,1.00
2018-09-25T13:28:40.343Z,0.90
2018-09-25T13:31:15.463Z,0.97
2018-09-25T13:33:50.943Z,1.10
2018-09-25T13:36:25.843Z,0.70
2018-09-25T13:39:00.163Z,0.60
2018-09-25T13:41:37.132Z,1.63
2018-09-25T13:44:12.783Z,1.23
2018-09-25T13:46:47.721Z,0.90
2018-09-25T13:49:22.456Z,1.10
2018-09-25T13:51:57.388Z,0.90
2018-09-25T13:54:32.564Z,0.90
2018-09-25T13:57:07.923Z,1.03
2018-09-25T13:59:43.159Z,0.80
2018-09-25T14:02:18.244Z,1.10
2018-09-25T14:04:52.764Z,1.27
2018-09-25T14:07:27.714Z,1.20
2018-09-25T14:10:02.734Z,1.10
2018-09-25T14:12:37.588Z,1.10
2018-09-25T14:15:12.990Z,1.30
2018-09-25T14:17:47.828Z,1.00
2018-09-25T14:20:22.567Z,0.70
2018-09-25T14:22:57.475Z,1.07
2018-09-25T14:25:32.529Z,0.93
2018-09-25T14:28:06.892Z,1.10
2018-09-25T14:30:41.698Z,0.93
2018-09-25T14:33:16.095Z,1.00
2018-09-25T14:35:51.225Z,1.00
2018-09-25T14:38:26.313Z,1.07
2018-09-25T14:41:00.811Z,0.90
2018-09-25T14:43:35.698Z,1.10
2018-09-25T14:46:11.098Z,1.17
2018-09-25T14:48:46.169Z,1.20
2018-09-25T14:51:21.152Z,3.97
2018-09-25T14:53:55.660Z,1.97
2018-09-25T14:56:30.739Z,0.90
2018-09-25T14:59:05.310Z,0.93
2018-09-25T15:01:41.199Z,1.00
2018-09-25T15:04:16.875Z,0.83
2018-09-25T15:06:52.384Z,1.10
2018-09-25T15:09:26.745Z,1.00
2018-09-25T15:12:01.029Z,0.90
2018-09-25T15:14:35.739Z,1.00
2018-09-25T15:17:10.440Z,0.93
2018-09-25T15:19:45.134Z,1.00
2018-09-25T15:22:20.445Z,0.83
2018-09-25T15:24:54.888Z,1.30
2018-09-25T15:27:29.898Z,1.00
2018-09-25T15:30:04.804Z,0.97
2018-09-25T15:32:39.961Z,1.13
2018-09-25T15:35:15.179Z,0.63
2018-09-25T15:37:49.974Z,1.03
2018-09-25T15:40:25.894Z,1.30
2018-09-25T15:43:00.624Z,1.33
2018-09-25T15:45:36.402Z,1.00
2018-09-25T15:48:12.318Z,1.10
2018-09-25T15:50:48.002Z,0.87
2018-09-25T15:53:22.683Z,1.00
2018-09-25T15:55:58.074Z,2.10
2018-09-25T15:58:34.522Z,1.03
2018-09-25T16:01:09.434Z,1.17
2018-09-25T16:03:43.851Z,1.13
2018-09-25T16:06:19.378Z,0.90
2018-09-25T16:08:54.248Z,1.10
2018-09-25T16:11:29.139Z,1.10
2018-09-25T16:14:04.500Z,1.00
2018-09-25T16:16:39.574Z,1.23
2018-09-25T16:19:15.515Z,1.20
2018-09-25T16:21:51.203Z,1.20
2018-09-25T16:24:26.380Z,1.13
2018-09-25T16:27:01.293Z,1.13
2018-09-25T16:29:36.350Z,1.00
2018-09-25T16:32:11.246Z,0.93
2018-09-25T16:34:46.744Z,1.00
2018-09-25T16:37:22.506Z,0.83
2018-09-25T16:39:57.431Z,0.80
2018-09-25T16:42:32.061Z,1.50
2018-09-25T16:45:06.995Z,1.10
2018-09-25T16:47:42.122Z,1.57
2018-09-25T16:50:17.326Z,1.40
2018-09-25T16:52:51.942Z,1.10
2018-09-25T16:55:26.652Z,1.23
2018-09-25T16:58:01.462Z,1.20
2018-09-25T17:00:36.477Z,1.33
2018-09-25T17:03:11.404Z,1.30
2018-09-25T17:05:46.394Z,1.10
2018-09-25T17:08:21.056Z,0.93
2018-09-25T17:10:56.128Z,1.67
2018-09-25T17:13:30.214Z,1.63
2018-09-25T17:16:04.842Z,1.37
2018-09-25T17:18:39.303Z,1.20
2018-09-25T17:21:15.014Z,1.50
2018-09-25T17:23:49.442Z,1.57
2018-09-25T17:26:24.071Z,2.33
2018-09-25T17:28:58.463Z,2.77
2018-09-25T17:31:32.993Z,2.63
2018-09-25T17:34:08.338Z,2.33
2018-09-25T17:36:43.251Z,1.70
2018-09-25T17:39:18.125Z,1.40
2018-09-25T17:41:52.891Z,1.83
2018-09-25T17:44:27.779Z,1.63
2018-09-25T17:47:02.474Z,2.27
2018-09-25T17:49:37.665Z,1.60
2018-09-25T17:52:12.362Z,1.70
2018-09-25T17:54:48.229Z,2.07
2018-09-25T17:57:23.619Z,2.67
2018-09-25T17:59:58.560Z,2.00
2018-09-25T18:02:33.677Z,2.10
2018-09-25T18:05:09.013Z,2.17
2018-09-25T18:07:43.668Z,2.53
2018-09-25T18:10:19.153Z,2.30
2018-09-25T18:12:55.166Z,2.00
2018-09-25T18:15:30.662Z,2.23
2018-09-25T18:18:05.059Z,1.70
2018-09-25T18:20:39.928Z,1.63
2018-09-25T18:23:15.269Z,1.53
2018-09-25T18:25:50.664Z,1.90
2018-09-25T18:28:25.555Z,1.53
2018-09-25T18:31:00.256Z,1.73
2018-09-25T18:33:35.313Z,3.70
2018-09-25T18:47:40.640Z,2.40
2018-09-25T18:50:15.292Z,1.97
2018-09-25T18:52:50.175Z,1.90
2018-09-25T18:55:25.005Z,1.80
2018-09-25T18:58:00.071Z,1.90
2018-09-25T19:00:35.922Z,1.83
2018-09-25T19:03:10.763Z,2.30
2018-09-25T19:05:45.587Z,3.50
2018-09-25T19:08:20.539Z,3.40
2018-09-25T19:10:54.895Z,2.23
2018-09-25T19:13:29.954Z,2.13
2018-09-25T19:16:04.898Z,1.83
2018-09-25T19:18:39.619Z,2.10
2018-09-25T19:21:14.179Z,1.40
2018-09-25T19:23:49.884Z,2.10
2018-09-25T19:26:24.944Z,2.13
2018-09-25T19:28:59.732Z,2.00
2018-09-25T19:31:34.635Z,2.60
2018-09-25T19:34:09.364Z,2.60
2018-09-25T19:36:44.046Z,2.63
2018-09-25T19:39:18.967Z,2.10
2018-09-25T19:41:54.604Z,2.30
2018-09-25T19:44:29.810Z,2.40
2018-09-25T19:47:04.855Z,2.07
2018-09-25T19:49:39.753Z,2.70
2018-09-25T19:52:14.635Z,2.47
2018-09-25T19:54:50.932Z,2.63
2018-09-25T19:57:25.614Z,2.67
2018-09-25T20:00:01.097Z,2.57
2018-09-25T20:02:35.923Z,3.00
2018-09-25T20:05:11.892Z,2.10
2018-09-25T20:07:47.880Z,2.13
2018-09-25T20:10:22.679Z,2.70
2018-09-25T20:12:57.573Z,2.53
2018-09-25T20:15:32.133Z,2.10
2018-09-25T20:18:07.008Z,2.27
2018-09-25T20:20:42.550Z,2.57
2018-09-25T20:23:17.253Z,2.47
2018-09-25T20:25:52.351Z,2.90
2018-09-25T20:28:26.820Z,2.40
2018-09-25T20:31:03.134Z,2.40
2018-09-25T20:33:36.928Z,2.60
2018-09-25T20:36:12.276Z,2.87
2018-09-25T20:38:47.828Z,2.73
2018-09-25T20:41:23.666Z,2.53
2018-09-25T20:43:58.469Z,2.83
2018-09-25T20:46:32.311Z,2.20
2018-09-25T20:49:08.039Z,2.97
2018-09-25T20:51:44.046Z,2.53
2018-09-25T20:54:18.686Z,3.10
2018-09-25T20:56:52.877Z,2.93
2018-09-25T20:59:27.553Z,3.27
2018-09-25T21:02:02.529Z,3.37
2018-09-25T21:04:36.940Z,3.60
2018-09-25T21:07:12.607Z,3.17
2018-09-25T21:09:47.191Z,4.00
2018-09-25T21:12:21.993Z,3.03
2018-09-25T21:14:56.928Z,4.00
2018-09-25T21:17:31.386Z,3.90
2018-09-25T21:20:06.855Z,3.47
2018-09-25T21:22:41.738Z,3.20
2018-09-25T21:25:19.518Z,3.30
2018-09-25T21:27:54.554Z,3.07
2018-09-25T21:30:29.379Z,4.03
2018-09-25T21:33:04.508Z,3.20
2018-09-25T21:35:39.108Z,2.90
2018-09-25T21:38:14.692Z,4.27
2018-09-25T21:40:49.497Z,4.30
2018-09-25T21:43:24.478Z,3.93
2018-09-25T21:45:58.825Z,3.30
2018-09-25T21:48:33.484Z,3.30
2018-09-25T21:51:08.769Z,3.50
2018-09-25T21:53:43.513Z,3.23
2018-09-25T21:56:17.979Z,3.20
2018-09-25T21:58:53.827Z,3.13
2018-09-25T22:01:29.322Z,3.63
2018-09-25T22:04:03.845Z,3.83
2018-09-25T22:06:37.914Z,2.90
2018-09-25T22:09:13.538Z,3.03
2018-09-25T22:11:48.437Z,2.90
2018-09-25T22:14:23.029Z,3.90
2018-09-25T22:16:58.075Z,3.30
2018-09-25T22:19:33.227Z,3.30
2018-09-25T22:22:07.855Z,3.10
2018-09-25T22:24:42.980Z,3.10
2018-09-25T22:27:17.933Z,3.40
2018-09-25T22:29:53.441Z,2.80
2018-09-25T22:32:27.547Z,2.83
2018-09-25T22:35:03.017Z,2.40
2018-09-25T22:37:37.408Z,2.93
2018-09-25T22:40:13.187Z,2.70
2018-09-25T22:42:48.002Z,3.23
2018-09-25T22:45:23.769Z,2.47
2018-09-25T22:47:57.928Z,2.63
2018-09-25T22:50:32.237Z,2.40
2018-09-25T22:53:07.732Z,2.53
2018-09-25T22:55:42.923Z,2.30
2018-09-25T22:58:18.016Z,2.20
2018-09-25T23:00:53.026Z,2.20
2018-09-25T23:03:27.744Z,2.53
2018-09-25T23:06:02.094Z,2.37
2018-09-25T23:08:37.955Z,2.37
2018-09-25T23:11:12.792Z,2.60
2018-09-25T23:13:48.155Z,2.50
2018-09-25T23:39:34.689Z,1.83
2018-09-25T23:42:12.179Z,2.60
2018-09-25T23:44:46.308Z,1.97
2018-09-25T23:47:27.879Z,2.37
2018-09-25T23:50:03.647Z,1.80
2018-09-25T23:52:39.488Z,2.37
2018-09-25T23:55:17.691Z,2.20
2018-09-25T23:57:52.154Z,2.73
